Tiempo atmosférico en la estación meteorológica de Palacios De La Sierra, Burgos (1080 m.)



Fecha
DESCASC
Temp. máxima en grados centígrados (hora)
DESCASC
Temp. mínima en grados centígrados (hora)
DESCASC
Temp. media en grados centígrados
DESCASC
Racha de viento máxima en m/sg (hora)
DESCASC
Velocidad máxima media en intervalos de 10 minutos(hora)
DESCASC
Precipitaciones diarias en mm
DESCASC
Precipitaciones de 00:00 a 06:00 en mm
DESCASC
Precipitaciones de 06:00 a 12:00 en mm
DESCASC
Precipitaciones de 12:00 a 18:00 en mm
DESCASC
Precipitaciones de 18:00 a 24:00 en mm
DESCASC
15-08-2019 29.2 (16:20) 10.4 (05:50) 19.8 10.28 (16:20) 5 (18:30) 0 0 0 0 0
14-08-2019 28.9 (18:00) 5.7 (00:00) 17.3 10.56 (15:30) 5 (08:30) 0 0 0 0 0
13-08-2019 24.8 (16:20) 6.4 (00:00) 15.6 9.72 (19:30) 5 (19:30) 0 0 0 0 0
12-08-2019 21.4 (16:50) 4.6 (00:00) 13 10 (17:00) 5 (17:00) 0 0 0 0 0
11-08-2019 23.9 (15:50) 11.5 (00:00) 17.7 11.67 (17:50) 5.83 (05:50) 0 0 0 0 0
10-08-2019 27 (17:40) 7.6 (00:00) 17.3 9.17 (18:20) 3.89 (18:20) 0.4 0 0.2 0 0.2
09-08-2019 25.9 (15:20) 12.3 (00:00) 19.1 14.72 (12:20) 8.06 (17:00) 1.2 0 0 0 1.2
08-08-2019 30.1 (18:40) 14.5 (00:00) 22.3 10.28 (18:40) 4.44 (18:40) 0 0 0 0 0
07-08-2019 26.7 (14:00) 15.7 (00:00) 21.2 8.89 (16:20) 4.72 (02:00) 0.4 0 0 0.4 0
06-08-2019 31.5 (16:50) 10.8 (00:00) 21.2 8.89 (12:30) 4.44 (18:10) 0 0 0 0 0
05-08-2019 32.6 (17:40) 11.8 (00:00) 22.2 10.83 (16:50) 4.17 (14:10) 0 0 0 0 0
04-08-2019 32.4 (16:50) 11 (00:00) 21.7 11.39 (16:40) 4.44 (19:10) 0 0 0 0 0
03-08-2019 33.1 (17:40) 11.3 (00:00) 22.2 9.17 (18:10) 4.44 (09:30) 0 0 0 0 0
02-08-2019 30.6 (16:40) 9.5 (00:00) 20.1 8.33 (22:00) 5 (22:10) 0 0 0 0 0
01-08-2019 29.7 (15:50) 17.9 (00:00) 23.8 10 (16:20) 5.28 (16:20) 0 0 0 0 0
31-07-2019 29.4 (16:40) 6.5 (00:00) 17.9 8.89 (14:10) 5 (11:00) 0 0 0 0 0
30-07-2019 24.8 (16:50) 4.8 (00:00) 14.8 7.78 (19:20) 4.72 (19:20) 0 0 0 0 0
29-07-2019 27.2 (16:20) 6.9 (00:00) 17.1 12.78 (17:00) 5.83 (16:40) 0 0 0 0 0
28-07-2019 24.5 (17:40) 5.4 (00:00) 15 9.17 (16:30) 3.89 (18:20) 0 0 0 0 0
27-07-2019 16.6 (19:30) 10.4 (00:00) 13.5 11.11 (15:30) 5.83 (15:20) 4.6 0 0 4.6 0
26-07-2019 26 (16:20) 15 (00:00) 20.5 11.11 (07:00) 5 (04:50) 1.2 1.2 0 0 0
25-07-2019 33.3 (17:00) 14 (00:00) 23.6 11.11 (20:30) 5.28 (20:30) 0 0 0 0 0
24-07-2019 33.5 (17:10) 12.6 (00:00) 23.1 8.61 (17:10) 4.17 (11:50) 0 0 0 0 0
23-07-2019 33.8 (16:50) 14.2 (00:00) 24 16.67 (18:10) 6.94 (22:00) 2.8 0 0 0 2.8
22-07-2019 34.2 (17:40) 18.8 (00:00) 26.5 11.39 (00:40) 6.39 (15:20) 0 0 0 0 0
21-07-2019 34.4 (18:30) 14.7 (00:00) 24.6 17.78 (19:20) 6.67 (19:20) 7.6 0 0 0 7.6
20-07-2019 32.7 (17:00) 14 (00:00) 23.4 10.83 (17:00) 5.83 (17:50) 0 0 0 0 0
19-07-2019 32.5 (17:00) 10.1 (00:00) 21.3 11.67 (14:50) 5.28 (17:40) 0 0 0 0 0

Gráficas

Temp. máximas Temp. mínimas Temp. medias Precipitaciones Rachas de viento máximas Velocidades máximas media en intervalos de 10 minutos

Datos horarios

Fecha y hora oficial Temperatura (ºC) Velocidad del viento (km/h) Dirección del viento Racha (km/h) Dirección de racha Precipitación (mm) Presión (hPa) Tendencia (hPa) Humedad (%)
2019-08-17 23:00:00 19.5 5 Sur 9 Sur 0 894.7 0.9 32
2019-08-17 22:00:00 22.4 0 Calma 13 Oeste 0 894.4 0.2 29
2019-08-17 21:00:00 27.6 8 Oeste 19 Oeste 0 893.9 -0.6 18
2019-08-17 20:00:00 30.9 9 Oeste 33 Noroeste 0 893.8 -1.1 14
2019-08-17 19:00:00 32 15 Oeste 35 Oeste 0 894.2 -1.1 12
2019-08-17 18:00:00 32.5 10 Oeste 33 Sudoeste 0 894.5 -1.5 13
2019-08-17 17:00:00 32.5 16 Oeste 37 Oeste 0 894.9 -1.5 13
2019-08-17 16:00:00 32 12 Oeste 31 Sudoeste 0 895.3 -1.6 14
2019-08-17 15:00:00 30.6 17 Oeste 39 Sudoeste 0 896 -1.4 15
2019-08-17 14:00:00 30.5 9 Sudoeste 33 Oeste 0 896.4 -1.1 20
2019-08-17 13:00:00 29.4 13 Oeste 31 Sudoeste 0 896.9 -0.8 22
2019-08-17 12:00:00 27.6 3 Oeste 12 Norte 0 897.4 -0.2 27
2019-08-17 11:00:00 25.3 5 Este 11 Sudeste 0 897.5 0.2 28
2019-08-17 10:00:00 20.1 4 Nordeste 8 Sur 0 897.7 0.8 49
2019-08-17 09:00:00 14.1 7 Sur 19 Sur 0 897.6 0.9 66
2019-08-17 08:00:00 10.6 5 Este 19 Sur 0 897.3 0.4 76
2019-08-17 07:00:00 11.5 4 Sur 19 Sur 0 896.9 -0.3 76
2019-08-17 06:00:00 11.4 7 Sur 21 Sur 0 896.7 -0.5 74
2019-08-17 05:00:00 12.3 10 Sur 15 Sur 0 896.9 -0.5 70
2019-08-17 04:00:00 13.2 3 Sudeste 17 Sur 0 897.2 -0.3 67
2019-08-17 03:00:00 14.5 6 Sudeste 18 Sur 0 897.2 -0.1 62
2019-08-17 02:00:00 15.7 4 Este 15 Sur 0 897.4 0.2 57
2019-08-17 01:00:00 16.4 10 Sur 23 Sur 0 897.5 1 54
2019-08-17 00:00:00 17.6 7 Sudeste 13 Sur 0 897.3 1 52
2019-08-16 23:00:00 18.2 0 Calma 5 Sur 0 897.2 1.2 49
2019-08-16 22:00:00 22.2 0 Calma 10 Oeste 0 896.5 0.4 36
2019-08-16 21:00:00 26.8 5 Oeste 21 Oeste 0 896.3 0 26
2019-08-16 20:00:00 30.1 11 Oeste 24 Oeste 0 896 -0.6 21
2019-08-16 19:00:00 31 12 Oeste 28 Oeste 0 896.1 -0.8 18
2019-08-16 18:00:00 31.7 13 Oeste 37 Oeste 0 896.3 -1.1 19
2019-08-16 17:00:00 31.4 14 Oeste 33 Oeste 0 896.6 -1.1 19
2019-08-16 16:00:00 31.3 10 Oeste 36 Oeste 0 896.9 -1.1 19
2019-08-16 15:00:00 30.5 13 Oeste 41 Noroeste 0 897.4 -0.7 21
2019-08-16 14:00:00 29.9 8 Noroeste 29 Noroeste 0 897.7 -0.7 24
2019-08-16 13:00:00 29 11 Sudoeste 26 Sudoeste 0 898 -0.8 26
2019-08-16 12:00:00 27.6 8 Este 19 Este 0 898.1 -0.8 29
2019-08-16 11:00:00 25.1 6 Este 14 Este 0 898.4 -0.4 37
2019-08-16 10:00:00 21.3 8 Este 15 Este 0 898.8 0.2 45
2019-08-16 09:00:00 15.3 5 Sudeste 13 Sur 0 898.9 0.3 63
2019-08-16 08:00:00 12.1 3 Sudeste 14 Sur 0 898.8 -0.1 74
2019-08-16 07:00:00 10.8 7 Sur 18 Sur 0 898.6 -0.5 80
2019-08-16 06:00:00 11.9 10 Sur 20 Sur 0 898.6 -0.8 76
2019-08-16 05:00:00 12.1 5 Sur 15 Sur 0 898.9 -0.8 75
2019-08-16 04:00:00 12.2 10 Sur 15 Sur 0 899.1 -0.6 74
2019-08-16 03:00:00 13 2 Sur 17 Sur 0 899.4 -0.3 71
2019-08-16 02:00:00 13.2 6 Sudeste 21 Sur 0 899.7 0 73
2019-08-16 01:00:00 14.2 6 Sur 17 Sur 0 899.7 0.4 67
2019-08-16 00:00:00 15.3 14 Sur 18 Sur 0 899.7 0.8 64
2019-08-15 23:00:00 17.2 4 Sudeste 10 Sur 0 899.7 0.8 58
2019-08-15 22:00:00 19.5 2 Sur 18 Nordeste 0 899.3 0.5 52
2019-08-15 21:00:00 23.8 5 Oeste 22 Noroeste 0 898.9 0.2 38
2019-08-15 20:00:00 26 10 Oeste 33 Noroeste 0 898.9 0.1 29
2019-08-15 19:00:00 26.6 16 Noroeste 36 Noroeste 0 898.8 -0.2 31
2019-08-15 18:00:00 28 16 Noroeste 34 Noroeste 0 898.7 -0.5 28
2019-08-15 17:00:00 28.7 15 Noroeste 37 Noroeste 0 898.8 -0.9 25
2019-08-15 16:00:00 28.5 13 Noroeste 32 Noroeste 0 899 -0.9 25
2019-08-15 15:00:00 28 12 Noroeste 32 Noroeste 0 899.2 -1 26
2019-08-15 14:00:00 27 10 Oeste 28 Oeste 0 899.7 -0.6 29
2019-08-15 13:00:00 26.3 7 Norte 21 Noroeste 0 899.9 -0.4 30
2019-08-15 12:00:00 24.5 5 Norte 15 Este 0 900.2 -0.2 37
2019-08-15 11:00:00 22.6 6 Sudeste 13 Sudeste 0 900.3 0.3 41
2019-08-15 10:00:00 19.1 4 Noroeste 8 Noroeste 0 900.3 0.8 56
2019-08-15 09:00:00 14.3 0 Calma 4 Oeste 0 900.4 1 68
2019-08-15 08:00:00 10.7 0 Calma 11 Sur 0 900 1 77
2019-08-15 07:00:00 11.6 4 Sur 10 Sur 0 899.5 0.4 75
2019-08-15 06:00:00 11.1 4 Sudoeste 18 Sur 0 899.4 -0.1 77
2019-08-15 05:00:00 12.6 8 Sur 18 Sur 0 899 -0.7 72
2019-08-15 04:00:00 12.5 12 Sur 19 Sur 0 899.1 -0.6 70
2019-08-15 03:00:00 13.3 3 Este 12 Sudeste 0 899.5 -0.1 64
2019-08-15 02:00:00 13.4 10 Sur 18 Sur 0 899.7 0.3 62
2019-08-15 01:00:00 14.8 7 Sudeste 21 Sur 0 899.7 0.9 56
2019-08-15 00:00:00 16.5 6 Sur 13 Sur 0 899.6 1.2 51
2019-08-14 23:00:00 17.5 4 Sudeste 9 Sur 0 899.4 1.1 48
2019-08-14 22:00:00 19.8 2 Nordeste 9 Oeste 0 898.8 0.3 42
2019-08-14 21:00:00 25 5 Sudoeste 16 Noroeste 0 898.4 -0.2 26
2019-08-14 20:00:00 27.7 8 Noroeste 21 Noroeste 0 898.3 -0.6 22
2019-08-14 19:00:00 28.6 9 Noroeste 22 Noroeste 0 898.5 -0.5 19
2019-08-14 18:00:00 28.9 8 Noroeste 31 Noroeste 0 898.6 -0.9 19
2019-08-14 17:00:00 28.4 14 Noroeste 31 Noroeste 0 898.9 -0.8 19
2019-08-14 16:00:00 28.2 12 Oeste 38 Noroeste 0 899 -1 20
2019-08-14 15:00:00 26.8 14 Noroeste 35 Noroeste 0 899.5 -0.7 21
2019-08-14 14:00:00 26.4 12 Oeste 28 Norte 0 899.7 -0.8 21
2019-08-14 13:00:00 24.8 9 Noroeste 30 Noroeste 0 900 -0.5 24
2019-08-14 12:00:00 23.6 11 Noroeste 23 Noroeste 0 900.2 -0.2 24
2019-08-14 11:00:00 20.9 4 Norte 9 Norte 0 900.5 0.2 32
2019-08-14 10:00:00 16 4 Nordeste 9 Este 0 900.5 0.9 50
2019-08-14 09:00:00 10.2 4 Sudeste 23 Sur 0 900.4 0.4 69
2019-08-14 08:00:00 6.5 3 Sudeste 20 Sur 0 900.3 0.4 78
2019-08-14 07:00:00 6.4 13 Sur 19 Sur 0 899.6 -0.6 79
2019-08-14 06:00:00 6.1 7 Sudeste 19 Sur 0 900 0 80
2019-08-14 05:00:00 6.9 5 Sudeste 18 Sur 0 899.9 -0.4 78
2019-08-14 04:00:00 7.2 7 Sur 15 Sur 0 900.2 0.2 74
2019-08-14 03:00:00 7.6 8 Sur 18 Sur 0 900 0.2 74
2019-08-14 02:00:00 8.4 5 Sudeste 17 Sur 0 900.3 0.5 73
2019-08-14 01:00:00 9.4 4 Este 15 Sur 0 900 0.5 68
2019-08-14 00:00:00 10.7 6 Sur 13 Sur 0 899.8 1 65
2019-08-13 23:00:00 13.2 5 Sudeste 12 Sur 0 899.8 1.4 56
2019-08-13 22:00:00 16.1 0 Calma 11 Oeste 0 899.5 1.2 47
2019-08-13 21:00:00 20 6 Oeste 31 Oeste 0 898.8 0.5 36
2019-08-13 20:00:00 21.9 17 Oeste 35 Oeste 0 898.4 -0.1 23
2019-08-13 19:00:00 23.4 14 Oeste 31 Oeste 0 898.3 -0.3 19
2019-08-13 18:00:00 24.4 13 Noroeste 30 Noroeste 0 898.3 -0.6 17
2019-08-13 17:00:00 24.7 12 Oeste 28 Norte 0 898.5 -1.1 14
2019-08-13 16:00:00 24.1 10 Noroeste 24 Noroeste 0 898.6 -1.2 14
2019-08-13 15:00:00 23.5 9 Noroeste 27 Oeste 0 898.9 -1.2 16
2019-08-13 14:00:00 22.3 9 Oeste 23 Noroeste 0 899.6 -0.6 15
2019-08-13 13:00:00 20.6 5 Noroeste 18 Oeste 0 899.8 -0.4 22
2019-08-13 12:00:00 18.8 6 Norte 18 Noroeste 0 900.1 -0.4 29
2019-08-13 11:00:00 16.3 5 Nordeste 11 Nordeste 0 900.2 0.2 42
2019-08-13 10:00:00 13.6 3 Norte 8 Norte 0 900.2 0.7 54
2019-08-13 09:00:00 10 2 Este 5 Nordeste 0 900.5 0.9 65
2019-08-13 08:00:00 6.5 0 Calma 15 Sur 0 900 0.3 79
2019-08-13 07:00:00 8.4 11 Sur 15 Sudeste 0 899.5 -0.2 73
2019-08-13 06:00:00 10.3 9 Sudeste 27 Sudeste 0 899.6 -0.4 62
2019-08-13 05:00:00 10.4 12 Sudeste 26 Sudeste 0 899.7 -0.9 62
2019-08-13 04:00:00 9.7 9 Sudeste 14 Sudoeste 0 899.7 -0.9 70
2019-08-13 03:00:00 9.5 8 Sur 11 Sur 0 900 -0.1 71
2019-08-13 02:00:00 10.4 2 Oeste 15 Sudeste 0 900.6 0.6 66
2019-08-13 01:00:00 11.6 6 Sudeste 15 Sudeste 0 900.6 0.9 62
2019-08-13 00:00:00 12.1 5 Sudoeste 26 Este 0 900.1 0.8 59
2019-08-12 23:00:00 12.4 17 Este 26 Este 0 900 1.2 61
2019-08-12 22:00:00 12.7 8 Sur 17 Sudeste 0 899.7 1.2 59
2019-08-12 21:00:00 14.7 5 Sudeste 23 Norte 0 899.3 0.7 52
2019-08-12 20:00:00 17.3 7 Norte 23 Nordeste 0 898.8 0.3 41
2019-08-12 19:00:00 19.3 12 Nordeste 31 Norte 0 898.5 -0.3 33
2019-08-12 18:00:00 20.5 12 Norte 31 Nordeste 0 898.6 -0.5 29
2019-08-12 17:00:00 20 18 Nordeste 36 Nordeste 0 898.5 -0.9 30
2019-08-12 16:00:00 21.3 8 Noroeste 26 Norte 0 898.8 -0.9 27
2019-08-12 15:00:00 20.6 12 Noroeste 32 Oeste 0 899.1 -0.4 29
2019-08-12 14:00:00 19.3 11 Noroeste 33 Oeste 0 899.4 0.1 33
2019-08-12 13:00:00 18.6 13 Noroeste 32 Noroeste 0 899.7 0.6 34
2019-08-12 12:00:00 17.1 7 Sudeste 26 Este 0 899.5 0.9 42
2019-08-12 11:00:00 16.2 4 Oeste 13 Sudeste 0 899.3 1.2 48
2019-08-12 10:00:00 13.5 4 Nordeste 10 Noroeste 0 899.1 1.7 67
2019-08-12 09:00:00 9.3 4 Oeste 10 Noroeste 0 898.6 1.5 83
2019-08-12 08:00:00 5.8 3 Sudeste 8 Oeste 0 898.1 0.6 91
2019-08-12 07:00:00 5.7 5 Sur 11 Sur 0 897.4 0.1 92
2019-08-12 06:00:00 5.9 0 Calma 15 Este 0 897.1 -0.2 89
2019-08-12 05:00:00 7 2 Sur 7 Sur 0 897.5 0.1 89
2019-08-12 04:00:00 7.7 3 Oeste 5 Sudeste 0 897.3 0 87
2019-08-12 03:00:00 9.2 0 Calma 6 Noroeste 0 897.3 0.1 83
2019-08-12 02:00:00 10 5 Noroeste 9 Noroeste 0 897.4 0.4 82
2019-08-12 01:00:00 10.7 4 Oeste 8 Oeste 0 897.3 0.9 75
2019-08-12 00:00:00 11.7 3 Sudeste 6 Sudeste 0 897.2 1.3 70
2019-08-11 23:00:00 13.8 0 Calma 10 Oeste 0 897 1.4 62
2019-08-11 22:00:00 16.7 5 Oeste 17 Oeste 0 896.4 0.8 51
2019-08-11 21:00:00 19.5 7 Oeste 26 Noroeste 0 895.9 0.3 35
2019-08-11 20:00:00 21.7 10 Noroeste 30 Noroeste 0 895.6 -0.1 29
2019-08-11 19:00:00 22.8 12 Oeste 33 Oeste 0 895.6 -0.3 31
2019-08-11 18:00:00 23.3 15 Oeste 42 Noroeste 0 895.6 -0.4 28
2019-08-11 17:00:00 22.5 17 Noroeste 39 Oeste 0 895.7 -0.3 35
2019-08-11 16:00:00 23 18 Oeste 36 Oeste 0 895.9 -0.5 31
2019-08-11 15:00:00 23.5 17 Noroeste 37 Noroeste 0 896 -0.4 32
2019-08-11 14:00:00 22.6 17 Oeste 32 Oeste 0 896 -0.3 34
2019-08-11 13:00:00 20.4 13 Noroeste 29 Oeste 0 896.4 0.4 43
2019-08-11 12:00:00 21.1 14 Noroeste 26 Noroeste 0 896.4 0.2 38
2019-08-11 11:00:00 20 9 Noroeste 19 Oeste 0 896.3 0.4 45
2019-08-11 10:00:00 18.1 3 Noroeste 9 Noroeste 0 896 -0.7 55
2019-08-11 09:00:00 14.4 3 Oeste 12 Sur 0 896.2 -0.1 75
2019-08-11 08:00:00 13.2 0 Calma 11 Oeste 0 895.9 0.4 84
2019-08-11 07:00:00 13.5 6 Noroeste 31 Oeste 0 896.7 1.2 82
2019-08-11 06:00:00 14.5 20 Oeste 39 Oeste 0 896.3 0.7 81
2019-08-11 05:00:00 15.7 4 Sur 13 Oeste 0 895.5 -1.1 74
2019-08-11 04:00:00 16.3 9 Noroeste 24 Noroeste 0 895.5 -1.3 68
2019-08-11 03:00:00 15 5 Sudoeste 12 Noroeste 0 895.6 -1.3 80
2019-08-11 02:00:00 15.4 4 Noroeste 13 Sudeste 0 896.6 -1 78
2019-08-11 01:00:00 15.4 7 Sudoeste 15 Sur 0 896.8 -0.3 75
2019-08-11 00:00:00 15.4 3 Sudeste 22 Sur 0.2 896.9 0.2 77
2019-08-10 23:00:00 18 6 Sur 12 Sur 0 897.6 0.9 60
2019-08-10 22:00:00 19.6 3 Sur 9 Sudoeste 0 897.1 0.2 46
2019-08-10 21:00:00 22.5 4 Sudoeste 14 Noroeste 0 896.7 -0.5 31
2019-08-10 20:00:00 23.8 6 Noroeste 19 Norte 0 896.7 -0.9 29
2019-08-10 19:00:00 25.4 12 Noroeste 33 Oeste 0 896.9 -1.3 25
2019-08-10 18:00:00 26.6 6 Noroeste 22 Sudoeste 0 897.2 -1.4 23
2019-08-10 17:00:00 26.3 8 Sudoeste 30 Sudoeste 0 897.6 -1.5 20
2019-08-10 16:00:00 25.9 5 Oeste 20 Norte 0 898.2 -1.2 30
2019-08-10 15:00:00 23.7 8 Norte 26 Nordeste 0 898.6 -1.2 37
2019-08-10 14:00:00 22.4 8 Nordeste 21 Norte 0 899.1 -0.8 44
2019-08-10 13:00:00 20.9 8 Norte 23 Norte 0 899.4 -0.2 50
2019-08-10 12:00:00 20.1 6 Oeste 15 Oeste 0 899.8 0.6 51
2019-08-10 11:00:00 17.9 5 Norte 12 Norte 0 899.9 1.2 59
2019-08-10 10:00:00 15.2 3 Noroeste 6 Este 0 899.6 0.8 79
2019-08-10 09:00:00 11.2 3 Este 12 Sur 0.2 899.2 0.6 90
2019-08-10 08:00:00 8.1 3 Este 11 Sur 0 898.7 0.4 94
2019-08-10 07:00:00 7.9 4 Sudeste 8 Sudeste 0 898.8 0.6 93
2019-08-10 06:00:00 8.3 0 Calma 12 Sudeste 0 898.6 0.4 93
2019-08-10 05:00:00 9.2 5 Sudeste 14 Sur 0 898.3 -0.2 93
2019-08-10 04:00:00 9.6 0 Calma 6 Sur 0 898.2 -0.4 92
2019-08-10 03:00:00 10.4 3 Sudeste 10 Sudeste 0 898.2 -0.3 92
2019-08-10 02:00:00 11.3 4 Este 12 Sur 0 898.5 0.1 91
2019-08-10 01:00:00 11.9 3 Sudeste 8 Sudoeste 0 898.6 0.7 91
2019-08-10 00:00:00 12.4 3 Oeste 10 Sudeste 0 898.5 0.3 90
2019-08-09 23:00:00 12.6 5 Este 13 Este 0 898.4 1.3 90
2019-08-09 22:00:00 13.6 9 Este 23 Sudoeste 0.8 897.9 1.9 86
2019-08-09 21:00:00 14.9 12 Oeste 42 Oeste 0.4 898.2 2.9 79
2019-08-09 20:00:00 18.9 18 Oeste 35 Oeste 0 897.1 1.9 57
2019-08-09 19:00:00 20.9 17 Oeste 48 Oeste 0 896 0.6 61
2019-08-09 18:00:00 24 23 Oeste 48 Noroeste 0 895.3 -0.2 54
2019-08-09 17:00:00 24.7 29 Oeste 49 Oeste 0 895.2 -0.4 51
2019-08-09 16:00:00 24.9 16 Oeste 43 Sudoeste 0 895.4 -0.3 50
2019-08-09 15:00:00 25 19 Oeste 41 Sudoeste 0 895.5 0 51
2019-08-09 14:00:00 24.9 19 Sudoeste 41 Oeste 0 895.6 0.5 49
2019-08-09 13:00:00 23.7 18 Oeste 53 Oeste 0 895.7 0.7 53
2019-08-09 12:00:00 24.1 19 Oeste 48 Sudoeste 0 895.5 0.9 49
2019-08-09 11:00:00 24.1 17 Oeste 44 Oeste 0 895.1 0.5 48
2019-08-09 10:00:00 21.4 14 Oeste 34 Sudoeste 0 895 0.5 59
2019-08-09 09:00:00 17.1 3 Noroeste 9 Este 0 894.6 0.3 73
2019-08-09 08:00:00 13.2 2 Norte 13 Este 0 894.6 0.2 85
2019-08-09 07:00:00 13 5 Sudeste 10 Sur 0 894.5 0.1 84
2019-08-09 06:00:00 13.4 5 Sur 10 Sur 0 894.3 -0.2 83
2019-08-09 05:00:00 14.1 4 Sudeste 9 Sur 0 894.4 -0.2 79
2019-08-09 04:00:00 14.4 0 Calma 6 Sur 0 894.4 -0.1 78
2019-08-09 03:00:00 15.4 0 Calma 11 Sudoeste 0 894.5 0.2 75
2019-08-09 02:00:00 17.3 6 Sudoeste 14 Oeste 0 894.6 0.6 66
2019-08-09 01:00:00 20 4 Sur 17 Oeste 0 894.5 1.3 56
2019-08-09 00:00:00 23.4 12 Oeste 24 Oeste 0 894.3 1.7 46
2019-08-08 23:00:00 24.8 13 Oeste 21 Sudoeste 0 894 1.2 38
2019-08-08 22:00:00 25.8 14 Oeste 24 Sudoeste 0 893.2 0.3 31
2019-08-08 21:00:00 27.4 5 Sudoeste 12 Sudoeste 0 892.6 -0.6 39
2019-08-08 20:00:00 27.6 7 Sudoeste 29 Oeste 0 892.8 -0.9 36
2019-08-08 19:00:00 29 10 Sudoeste 37 Oeste 0 892.9 -1.3 33
2019-08-08 18:00:00 28.3 13 Oeste 31 Oeste 0 893.2 -1.4 34
2019-08-08 17:00:00 29.1 6 Sudoeste 27 Sudoeste 0 893.7 -1.2 34
2019-08-08 16:00:00 27.2 13 Noroeste 29 Noroeste 0 894.2 -0.9 41
2019-08-08 15:00:00 25.7 11 Oeste 32 Oeste 0 894.6 -0.9 43
2019-08-08 14:00:00 26.4 9 Sudoeste 31 Noroeste 0 894.9 -0.6 42
2019-08-08 13:00:00 25 12 Sudoeste 24 Sur 0 895.1 -0.3 45
2019-08-08 12:00:00 22.1 8 Sudoeste 24 Sudoeste 0 895.5 0.1 54
2019-08-08 11:00:00 19.9 6 Nordeste 13 Este 0 895.5 0.4 61
2019-08-08 10:00:00 18.1 6 Nordeste 10 Este 0 895.4 0.4 67
2019-08-08 09:00:00 16.7 2 Oeste 5 Sudoeste 0 895.4 0.6 72
2019-08-08 08:00:00 15.4 2 Este 13 Sur 0 895.1 0.1 76
2019-08-08 07:00:00 14.8 3 Sudeste 14 Sur 0 895 0 77
2019-08-08 06:00:00 14.7 5 Sur 12 Sur 0 894.8 0 77
2019-08-08 05:00:00 14.7 4 Sur 12 Sur 0 895 -0.1 77
2019-08-08 04:00:00 14.9 3 Sur 12 Sur 0 895 0 78
2019-08-08 03:00:00 15.3 3 Sudeste 14 Sur 0 894.8 -0.3 77
2019-08-08 02:00:00 14.9 5 Sudeste 11 Sur 0 895.1 0.4 77
2019-08-08 01:00:00 16.8 3 Oeste 11 Noroeste 0 895 0.8 69
2019-08-08 00:00:00 17.8 5 Noroeste 15 Noroeste 0 895.1 1.3 62
2019-08-07 23:00:00 19 10 Oeste 28 Oeste 0 894.7 0.8 56
2019-08-07 22:00:00 19.9 5 Sudoeste 15 Oeste 0 894.2 0.4 52
2019-08-07 21:00:00 20.8 6 Oeste 26 Sudoeste 0 893.8 -0.1 50
2019-08-07 20:00:00 21.3 10 Oeste 25 Oeste 0 893.9 -0.2 49
2019-08-07 19:00:00 22.2 9 Noroeste 28 Oeste 0 893.8 -0.6 46
2019-08-07 18:00:00 22 5 Oeste 13 Oeste 0 893.9 -0.4 56
2019-08-07 17:00:00 20.2 4 Oeste 32 Sudoeste 0.4 894.1 0.3 67
2019-08-07 16:00:00 22.7 3 Oeste 24 Sudoeste 0 894.4 0.4 55
2019-08-07 15:00:00 23.5 14 Oeste 30 Sur 0 894.3 0.1 39
2019-08-07 14:00:00 26.7 10 Oeste 27 Sudoeste 0 893.8 -0.1 31
2019-08-07 13:00:00 24.4 5 Este 18 Oeste 0 894 0.6 40
2019-08-07 12:00:00 23.3 11 Oeste 23 Oeste 0 894.2 1.1 43
2019-08-07 11:00:00 23 11 Noroeste 24 Oeste 0 893.9 1 44
2019-08-07 10:00:00 21.4 13 Noroeste 20 Noroeste 0 893.4 1.1 50
2019-08-07 09:00:00 17.9 3 Noroeste 5 Noroeste 0 893.1 1.1 73
2019-08-07 08:00:00 15.7 0 Calma 3 Este 0 892.9 1.1 78
2019-08-07 07:00:00 15.9 2 Sudoeste 4 Sudoeste 0 892.3 0.3 77
2019-08-07 06:00:00 16.3 3 Noroeste 7 Sur 0 892 0.4 75
2019-08-07 05:00:00 17.3 5 Sur 19 Noroeste 0 891.8 -0.8 70
2019-08-07 04:00:00 17.5 6 Noroeste 17 Noroeste 0 892 -0.6 71
2019-08-07 03:00:00 18.3 3 Sudeste 26 Noroeste 0 891.6 -0.9 69
2019-08-07 02:00:00 18.4 17 Oeste 30 Oeste 0 892.6 0.1 69
2019-08-07 01:00:00 17.9 0 Calma 4 Sudeste 0 892.6 0.6 62
2019-08-07 00:00:00 18.9 0 Calma 8 Este 0 892.5 0.8 58
2019-08-06 23:00:00 20.9 3 Noroeste 11 Sudoeste 0 892.5 0.8 50
2019-08-06 22:00:00 22.3 3 Sudoeste 6 Noroeste 0 892 0 41
2019-08-06 21:00:00 25.4 4 Noroeste 8 Noroeste 0 891.7 -0.5 31
2019-08-06 20:00:00 27.5 4 Noroeste 16 Noroeste 0 891.7 -1 29
2019-08-06 19:00:00 28.7 6 Oeste 30 Noroeste 0 892 -1.1 23
2019-08-06 18:00:00 29.5 14 Oeste 31 Sudoeste 0 892.2 -1.4 20
2019-08-06 17:00:00 30.6 5 Noroeste 27 Sudoeste 0 892.7 -1.6 20
2019-08-06 16:00:00 30.4 12 Sudoeste 31 Noroeste 0 893.1 -1.4 20
2019-08-06 15:00:00 30.1 10 Oeste 31 Noroeste 0 893.6 -1 21
2019-08-06 14:00:00 28.9 13 Oeste 28 Noroeste 0 894.3 -0.4 27
2019-08-06 13:00:00 28.4 14 Noroeste 32 Noroeste 0 894.5 -0.2 29
2019-08-06 12:00:00 26.9 10 Norte 22 Noroeste 0 894.6 -0.3 33
2019-08-06 11:00:00 25.3 4 Nordeste 11 Noroeste 0 894.7 -0.1 38
2019-08-06 10:00:00 21.4 3 Nordeste 8 Sudoeste 0 894.7 0.2 52
2019-08-06 09:00:00 16.5 3 Sudeste 17 Sur 0 894.9 0.4 66
2019-08-06 08:00:00 12.9 5 Sudeste 18 Sur 0 894.8 0.5 78
2019-08-06 07:00:00 12.4 11 Sur 18 Sur 0 894.5 0 76
2019-08-06 06:00:00 12.8 3 Sur 20 Sur 0 894.5 -0.2 71
2019-08-06 05:00:00 12.7 8 Sudeste 19 Sur 0 894.3 -0.6 69
2019-08-06 04:00:00 13.6 3 Sur 18 Sur 0 894.5 -0.3 66
2019-08-06 03:00:00 14.7 14 Sur 18 Sur 0 894.7 0.2 62
2019-08-06 02:00:00 13.7 4 Sudoeste 14 Sur 0 894.9 0.6 65
2019-08-06 01:00:00 16.6 6 Sur 15 Sur 0 894.8 1.1 53
2019-08-06 00:00:00 19.1 12 Sur 17 Sur 0 894.5 1.2 44
2019-08-05 23:00:00 21.2 3 Sur 13 Sudoeste 0 894.3 1 39
2019-08-05 22:00:00 22.7 3 Sudeste 13 Oeste 0 893.7 0.2 29
2019-08-05 21:00:00 27.9 7 Oeste 14 Oeste 0 893.3 -0.4 17
2019-08-05 20:00:00 30.9 6 Noroeste 24 Noroeste 0 893.3 -0.8 14
2019-08-05 19:00:00 32 10 Oeste 26 Oeste 0 893.5 -1 14
2019-08-05 18:00:00 32.6 9 Noroeste 31 Sudoeste 0 893.7 -1.2 14
2019-08-05 17:00:00 31.9 12 Sudoeste 39 Sur 0 894.1 -0.9 14
2019-08-05 16:00:00 31.9 10 Sudoeste 29 Sudoeste 0 894.5 -0.9 14
2019-08-05 15:00:00 31.2 12 Sudoeste 31 Sudoeste 0 894.9 -0.9 13
2019-08-05 14:00:00 30.5 9 Oeste 27 Sudoeste 0 895 -1 18
2019-08-05 13:00:00 29.8 8 Sudoeste 20 Oeste 0 895.4 -0.8 25
2019-08-05 12:00:00 28 8 Sudeste 15 Sudeste 0 895.8 -0.5 32
2019-08-05 11:00:00 25.9 5 Sur 12 Sur 0 896 -0.4 43
2019-08-05 10:00:00 22.4 3 Sudeste 10 Sur 0 896.2 0 55
2019-08-05 09:00:00 16.7 4 Sur 10 Sur 0 896.3 0.5 65
2019-08-05 08:00:00 12.7 7 Este 18 Sur 0 896.4 0.4 77
2019-08-05 07:00:00 12.2 5 Sur 16 Sur 0 896.2 0.3 77
2019-08-05 06:00:00 12.8 4 Sudeste 15 Sur 0 895.8 -0.2 74
2019-08-05 05:00:00 13.3 9 Sur 17 Sur 0 896 -0.1 73
2019-08-05 04:00:00 12.9 5 Sudeste 16 Sur 0 895.9 -0.1 74
2019-08-05 03:00:00 14.4 0 Calma 15 Sur 0 896 0.1 68
2019-08-05 02:00:00 15.3 3 Sur 11 Sur 0 896.1 0.3 64
2019-08-05 01:00:00 17.7 3 Sudeste 14 Sur 0 896 0.9 55
2019-08-05 00:00:00 19.4 7 Sur 15 Sur 0 895.9 1.2 51
2019-08-04 23:00:00 19.9 3 Este 7 Sudeste 0 895.8 1.5 47
2019-08-04 22:00:00 23.2 3 Sudoeste 8 Oeste 0 895.1 0.9 37
2019-08-04 21:00:00 28.1 5 Oeste 16 Oeste 0 894.7 0.5 25
2019-08-04 20:00:00 30.8 8 Oeste 39 Noroeste 0 894.3 -0.1 18
2019-08-04 19:00:00 31.4 15 Oeste 30 Noroeste 0 894.2 -0.6 15
2019-08-04 18:00:00 32.2 6 Sudoeste 30 Oeste 0 894.2 -0.7 14
2019-08-04 17:00:00 31.6 9 Noroeste 41 Noroeste 0 894.4 -0.8 19
2019-08-04 16:00:00 31.6 8 Sudoeste 32 Oeste 0 894.8 -0.7 16
2019-08-04 15:00:00 30.8 12 Sudoeste 29 Oeste 0 894.9 -0.9 19
2019-08-04 14:00:00 30.3 12 Oeste 31 Oeste 0 895.2 -0.7 21
2019-08-04 13:00:00 29.4 10 Sur 21 Sudeste 0 895.5 -0.4 26
2019-08-04 12:00:00 27.7 4 Noroeste 14 Sur 0 895.8 -0.1 31
2019-08-04 11:00:00 25.8 4 Norte 10 Norte 0 895.9 0.4 38
2019-08-04 10:00:00 22.3 7 Este 12 Este 0 895.9 0.6 52
2019-08-04 09:00:00 17.4 4 Este 15 Sur 0 895.9 0.8 63
2019-08-04 08:00:00 13.1 9 Sur 15 Sur 0 895.5 0.7 75
2019-08-04 07:00:00 11.5 5 Sudeste 16 Este 0 895.3 0.6 81
2019-08-04 06:00:00 11.7 2 Oeste 17 Sur 0 895.1 0.5 76
2019-08-04 05:00:00 13.5 5 Sur 15 Este 0 894.8 0.1 70
2019-08-04 04:00:00 13.7 3 Sudeste 6 Este 0 894.7 0 71
2019-08-04 03:00:00 15 0 Calma 6 Sudeste 0 894.6 0 65
2019-08-04 02:00:00 16.6 0 Calma 5 Sur 0 894.7 0.2 59
2019-08-04 01:00:00 20 8 Sur 18 Sur 0 894.7 0.7 48
2019-08-04 00:00:00 21.5 10 Sur 17 Sur 0 894.6 1.2 43
2019-08-03 23:00:00 23.5 9 Sudeste 19 Sudeste 0 894.5 1.2 37
2019-08-03 22:00:00 24.8 10 Este 23 Este 0 894 0.6 34
2019-08-03 21:00:00 27.4 8 Oeste 18 Oeste 0 893.4 -0.1 21
2019-08-03 20:00:00 30.9 12 Oeste 26 Noroeste 0 893.3 -0.7 13
2019-08-03 19:00:00 32.3 8 Noroeste 33 Oeste 0 893.4 -0.8 13
2019-08-03 18:00:00 32.9 6 Noroeste 31 Sudoeste 0 893.5 -1 14
2019-08-03 17:00:00 32.1 5 Oeste 32 Sudoeste 0 894 -0.9 14
2019-08-03 16:00:00 32.8 7 Oeste 26 Sudoeste 0 894.2 -1.2 13
2019-08-03 15:00:00 31.7 8 Oeste 28 Oeste 0 894.5 -1.1 16
2019-08-03 14:00:00 31.2 7 Noroeste 27 Oeste 0 894.9 -0.7 18
2019-08-03 13:00:00 29.9 6 Este 24 Sudeste 0 895.4 -0.5 23
2019-08-03 12:00:00 28.3 6 Sudeste 18 Este 0 895.6 -0.4 26
2019-08-03 11:00:00 26.5 9 Sudeste 29 Este 0 895.6 -0.3 32
2019-08-03 10:00:00 24.1 13 Este 27 Este 0 895.9 0.1 38
2019-08-03 09:00:00 17.6 9 Este 20 Este 0 896 0.2 55
2019-08-03 08:00:00 13.7 3 Sudeste 8 Este 0 895.9 -0.1 68
2019-08-03 07:00:00 12.1 0 Calma 8 Sudeste 0 895.8 -0.2 71
2019-08-03 06:00:00 13.1 4 Sudeste 12 Sur 0 895.8 -0.6 69
2019-08-03 05:00:00 13.6 7 Sur 12 Sur 0 896 -0.7 68
2019-08-03 04:00:00 14.4 5 Sudeste 12 Sur 0 896 -0.7 65
2019-08-03 03:00:00 15.2 2 Sudeste 5 Sudeste 0 896.4 -0.2 62
2019-08-03 02:00:00 16.5 2 Norte 13 Sur 0 896.7 0.2 56
2019-08-03 01:00:00 19.2 5 Sur 22 Este 0 896.7 0.8 49
2019-08-03 00:00:00 20.7 9 Este 21 Este 0 896.6 1.1 42
2019-08-02 23:00:00 21.5 8 Sur 27 Este 0 896.5 1.2 42
2019-08-02 22:00:00 22.6 18 Este 30 Este 0 895.9 0.5 40
2019-08-02 21:00:00 26.2 6 Noroeste 22 Noroeste 0 895.5 -0.1 38
2019-08-02 20:00:00 29.1 4 Noroeste 20 Oeste 0 895.3 -0.6 25
2019-08-02 19:00:00 29.7 10 Noroeste 26 Noroeste 0 895.4 -0.6 23
2019-08-02 18:00:00 30.2 12 Oeste 26 Noroeste 0 895.6 -0.7 22
2019-08-02 17:00:00 30.6 12 Noroeste 26 Norte 0 895.9 -0.6 22
2019-08-02 16:00:00 30.3 11 Oeste 28 Noroeste 0 896 -0.8 20
2019-08-02 15:00:00 29.7 12 Oeste 29 Noroeste 0 896.3 -0.6 24
2019-08-02 14:00:00 29.1 8 Nordeste 20 Nordeste 0 896.5 -0.4 24
2019-08-02 13:00:00 27.7 9 Sudeste 19 Este 0 896.8 -0.1 28
2019-08-02 12:00:00 26.5 4 Nordeste 15 Sudeste 0 896.9 0.2 33
2019-08-02 11:00:00 24 5 Norte 9 Norte 0 896.9 0.4 39
2019-08-02 10:00:00 19 3 Nordeste 6 Nordeste 0 896.9 0.7 60
2019-08-02 09:00:00 14.3 4 Sudeste 10 Sudeste 0 896.7 0.8 76
2019-08-02 08:00:00 10.9 4 Sudeste 7 Sudeste 0 896.5 0.5 86
2019-08-02 07:00:00 9.7 0 Calma 8 Sur 0 896.2 0.2 89
2019-08-02 06:00:00 10.8 2 Sudeste 7 Sudeste 0 895.9 -0.1 88
2019-08-02 05:00:00 11.3 2 Sur 4 Sudeste 0 896 -0.1 88
2019-08-02 04:00:00 11.7 0 Calma 4 Sur 0 896 -0.1 87
2019-08-02 03:00:00 13 0 Calma 4 Noroeste 0 896 0.1 87
2019-08-02 02:00:00 14.5 0 Calma 4 Noroeste 0 896.1 0.7 84
2019-08-02 01:00:00 16.6 2 Oeste 13 Sur 0 896.1 1.5 76
2019-08-02 00:00:00 18.9 10 Sur 21 Sur 0 895.9 1.9 69
2019-08-01 23:00:00 18.8 0 Calma 12 Oeste 0 895.4 1.8 65
2019-08-01 22:00:00 21.5 4 Noroeste 13 Noroeste 0 894.6 1.1 54
2019-08-01 21:00:00 24.5 10 Noroeste 27 Noroeste 0 894 0.7 45
2019-08-01 20:00:00 26.8 11 Noroeste 23 Noroeste 0 893.6 0.5 33
2019-08-01 19:00:00 26.2 12 Noroeste 28 Noroeste 0 893.5 0.4 37
2019-08-01 18:00:00 28.3 14 Oeste 34 Oeste 0 893.3 0 33
2019-08-01 17:00:00 29.5 14 Oeste 36 Noroeste 0 893.1 -0.4 20
2019-08-01 16:00:00 29.3 17 Oeste 35 Oeste 0 893.1 -0.5 18
2019-08-01 15:00:00 28.5 15 Oeste 35 Sudoeste 0 893.3 -0.6 19
2019-08-01 14:00:00 27.4 14 Sudoeste 27 Sudoeste 0 893.5 -0.2 27
2019-08-01 13:00:00 25.4 8 Este 23 Este 0 893.6 0.1 46
2019-08-01 12:00:00 24.5 8 Este 24 Este 0 893.9 0.3 50
2019-08-01 11:00:00 22.9 11 Sudeste 31 Este 0 893.7 0.3 55
2019-08-01 10:00:00 21.5 16 Este 27 Este 0 893.5 0.2 59
2019-08-01 09:00:00 19.7 13 Este 20 Este 0 893.6 0.4 67
2019-08-01 08:00:00 18.3 9 Sudeste 28 Este 0 893.4 0.2 73
2019-08-01 07:00:00 18.2 7 Sudeste 22 Sudeste 0 893.3 0.1 71
2019-08-01 06:00:00 18.9 13 Sudeste 29 Este 0 893.2 -0.7 67
2019-08-01 05:00:00 19.5 15 Sudeste 33 Sudeste 0 893.2 -1.1 62
2019-08-01 04:00:00 19.5 7 Este 16 Este 0 893.2 -1.4 61
2019-08-01 03:00:00 19.3 3 Sur 11 Sudoeste 0 893.9 -1 59
2019-08-01 02:00:00 19.7 6 Sur 13 Sur 0 894.3 -0.5 55
2019-08-01 01:00:00 19.6 6 Sur 13 Sudeste 0 894.6 0.3 50
2019-08-01 00:00:00 19.9 7 Sur 20 Sur 0 894.9 1 45
2019-07-31 23:00:00 20.3 9 Sudeste 19 Este 0 894.8 1.6 43
2019-07-31 22:00:00 21.1 10 Sudeste 26 Sudeste 0 894.3 1.1 40
2019-07-31 21:00:00 22.9 12 Este 26 Este 0 893.9 0.2 37
2019-07-31 20:00:00 25.5 16 Este 30 Este 0 893.2 -1.1 33
2019-07-31 19:00:00 27.4 13 Este 26 Este 0 893.2 -1.5 30
2019-07-31 18:00:00 27.7 8 Sudeste 27 Este 0 893.7 -1.6 28
2019-07-31 17:00:00 28.2 8 Sur 26 Sudoeste 0 894.3 -1.7 27
2019-07-31 16:00:00 28.6 7 Sudoeste 28 Este 0 894.7 -1.6 25
2019-07-31 15:00:00 26.7 13 Este 32 Este 0 895.3 -1.4 33
2019-07-31 14:00:00 24.8 8 Este 23 Este 0 896 -0.8 38
2019-07-31 13:00:00 24.2 12 Este 24 Este 0 896.3 -0.8 37
2019-07-31 12:00:00 22.2 10 Este 31 Este 0 896.7 -0.6 39
2019-07-31 11:00:00 21 18 Este 28 Este 0 896.8 -0.8 41
2019-07-31 10:00:00 15.7 5 Este 12 Este 0 897.1 -0.4 53
2019-07-31 09:00:00 9.4 4 Sudeste 11 Sur 0 897.3 -0.3 78
2019-07-31 08:00:00 7 0 Calma 6 Sur 0 897.6 -0.2 87
2019-07-31 07:00:00 7.1 5 Sudeste 17 Sur 0 897.5 -0.3 84
2019-07-31 06:00:00 7.7 3 Sudeste 16 Sur 0 897.6 -0.5 83
2019-07-31 05:00:00 6.8 0 Calma 5 Noroeste 0 897.8 -0.2 86
2019-07-31 04:00:00 8.2 0 Calma 7 Sur 0 897.8 -0.3 81
2019-07-31 03:00:00 8.6 2 Sudeste 6 Sur 0 898.1 0.1 80
2019-07-31 02:00:00 9.6 3 Oeste 6 Oeste 0 898 0.5 76
2019-07-31 01:00:00 12.6 6 Sur 14 Sur 0 898.1 1.3 65
2019-07-31 00:00:00 13.4 7 Sudeste 16 Sur 0 898 1.6 62
2019-07-30 23:00:00 13.6 11 Sur 17 Sur 0 897.5 1.6 61
2019-07-30 22:00:00 15.6 6 Sur 15 Este 0 896.8 1.2 53
2019-07-30 21:00:00 18.6 5 Sur 20 Este 0 896.4 0.4 43
2019-07-30 20:00:00 20.8 13 Sudeste 28 Este 0 895.9 -0.6 37
2019-07-30 19:00:00 24.2 5 Sudoeste 20 Sudeste 0 895.6 -1.2 29
2019-07-30 18:00:00 24.7 8 Noroeste 22 Norte 0 896 -1.2 26
2019-07-30 17:00:00 23.7 9 Norte 23 Nordeste 0 896.5 -1 26
2019-07-30 16:00:00 23.4 6 Oeste 20 Noroeste 0 896.8 -0.8 26
2019-07-30 15:00:00 22.4 8 Oeste 22 Este 0 897.2 -0.5 27
2019-07-30 14:00:00 21.5 7 Oeste 20 Noroeste 0 897.5 -0.2 30
2019-07-30 13:00:00 20 3 Oeste 17 Norte 0 897.6 0 35
2019-07-30 12:00:00 19 5 Sudeste 17 Norte 0 897.7 0 38
2019-07-30 11:00:00 17.2 5 Oeste 11 Noroeste 0 897.7 0.8 54
2019-07-30 10:00:00 13.9 4 Sur 15 Este 0 897.6 1.3 71
2019-07-30 09:00:00 10.2 5 Sur 15 Sur 0 897.7 1.7 83
2019-07-30 08:00:00 6.3 10 Sur 14 Sur 0 896.9 1.2 85
2019-07-30 07:00:00 5.3 3 Sudeste 13 Sur 0 896.3 0.9 85
2019-07-30 06:00:00 5.3 0 Calma 5 Noroeste 0 896 0.9 88
2019-07-30 05:00:00 6.4 0 Calma 6 Oeste 0 895.7 0.7 85
2019-07-30 04:00:00 7 0 Calma 5 Norte 0 895.4 0.6 80
2019-07-30 03:00:00 8.1 0 Calma 6 Noroeste 0 895.1 0.6 76
2019-07-30 02:00:00 9.2 0 Calma 5 Oeste 0 895 0.9 68
2019-07-30 01:00:00 11.4 2 Norte 6 Este 0 894.8 1.5 57
2019-07-30 00:00:00 13.4 2 Nordeste 11 Oeste 0 894.5 1.8 47
2019-07-29 23:00:00 17.4 10 Oeste 24 Oeste 0 894.1 1.7 31
2019-07-29 22:00:00 20.1 11 Oeste 24 Sudoeste 0 893.3 1.3 24
2019-07-29 21:00:00 23 8 Oeste 32 Oeste 0 892.7 0.6 22
2019-07-29 20:00:00 24.9 13 Oeste 35 Oeste 0 892.4 0.3 18
2019-07-29 19:00:00 25.9 19 Oeste 44 Noroeste 0 892 -0.2 29
2019-07-29 18:00:00 26.6 18 Oeste 39 Noroeste 0 892.1 -0.3 28
2019-07-29 17:00:00 26.8 21 Oeste 46 Noroeste 0 892.1 -0.4 23
2019-07-29 16:00:00 26.5 16 Oeste 40 Noroeste 0 892.2 -0.6 25
2019-07-29 15:00:00 26.1 9 Oeste 37 Sudoeste 0 892.4 -0.5 27
2019-07-29 14:00:00 25 12 Sudoeste 32 Oeste 0 892.5 -0.3 26
2019-07-29 13:00:00 23.6 16 Sudoeste 30 Sudoeste 0 892.8 0.1 27
2019-07-29 12:00:00 22.7 7 Sudoeste 23 Sudoeste 0 892.9 0.4 32
2019-07-29 11:00:00 20.6 3 Norte 10 Nordeste 0 892.8 0.3 40
2019-07-29 10:00:00 17.4 2 Este 6 Noroeste 0 892.7 0.5 54
2019-07-29 09:00:00 11.9 3 Sur 14 Sur 0 892.5 0.5 71
2019-07-29 08:00:00 7.8 12 Sur 20 Sur 0 892.5 0.5 79
2019-07-29 07:00:00 7.2 6 Sur 18 Sur 0 892.2 0.7 81
2019-07-29 06:00:00 7 9 Sur 17 Sur 0 892 -0.1 83
2019-07-29 05:00:00 7.5 10 Sur 20 Sur 0 892 -0.2 78
2019-07-29 04:00:00 8.4 7 Sur 19 Sur 0 891.5 -0.6 74
2019-07-29 03:00:00 8.3 12 Sur 18 Sur 0 892.1 -0.1 75
2019-07-29 02:00:00 9.5 4 Sur 14 Sur 0 892.2 0.1 71
2019-07-29 01:00:00 10.3 7 Sur 12 Sur 0 892.1 0.4 70
2019-07-29 00:00:00 11.3 3 Sudeste 9 Sur 0 892.2 0.6 67
2019-07-28 23:00:00 13 0 Calma 17 Este 0 892.1 0.8 62
2019-07-28 22:00:00 16.4 0 Calma 6 Sur 0 891.7 0.7 52
2019-07-28 21:00:00 22.4 0 Calma 23 Noroeste 0 891.6 0.5 28
2019-07-28 20:00:00 23.2 7 Noroeste 25 Noroeste 0 891.3 -0.1 27
2019-07-28 19:00:00 23.6 12 Oeste 31 Oeste 0 891 -0.8 24
2019-07-28 18:00:00 24.2 10 Oeste 26 Oeste 0 891.1 -0.9 26
2019-07-28 17:00:00 23.5 11 Norte 33 Noroeste 0 891.4 -1 30
2019-07-28 16:00:00 22.8 9 Noroeste 25 Noroeste 0 891.8 -1 31
2019-07-28 15:00:00 21.3 12 Norte 25 Norte 0 892 -0.9 34
2019-07-28 14:00:00 20.5 11 Noroeste 23 Noroeste 0 892.4 -0.8 39
2019-07-28 13:00:00 19.4 9 Norte 21 Norte 0 892.8 -0.5 45
2019-07-28 12:00:00 18.2 4 Sudeste 14 Noroeste 0 892.9 0.2 46
2019-07-28 11:00:00 16.1 4 Sudeste 9 Sudeste 0 893.2 0.4 58
2019-07-28 10:00:00 14 3 Oeste 7 Nordeste 0 893.3 0.7 68
2019-07-28 09:00:00 11 2 Oeste 10 Sur 0 892.7 0.5 81
2019-07-28 08:00:00 7.7 3 Este 13 Este 0 892.8 0.2 90
2019-07-28 07:00:00 6 2 Norte 12 Sur 0 892.6 0.2 93
2019-07-28 06:00:00 7.1 9 Sur 13 Sudoeste 0 892.2 -0.4 92
2019-07-28 05:00:00 7 8 Sudeste 14 Sur 0 892.6 0.3 91
2019-07-28 04:00:00 7.8 5 Sudoeste 17 Sur 0 892.4 -0.1 87
2019-07-28 03:00:00 8.2 11 Sur 18 Sur 0 892.6 0.4 90
2019-07-28 02:00:00 8 5 Sur 12 Sur 0 892.3 0.2 89
2019-07-28 01:00:00 9.6 3 Sur 11 Sudoeste 0 892.5 1.3 87
2019-07-28 00:00:00 10.4 2 Sudeste 15 Sur 0 892.2 1.4 86
2019-07-27 23:00:00 11.2 12 Sur 23 Sudoeste 0 892.1 1.8 84
2019-07-26 12:00:00 20.6 4 Oeste 18 Sudoeste 0 893.4 0.6 66
2019-07-26 11:00:00 19.4 5 Noroeste 12 Noroeste 0 893.5 0.8 74
2019-07-26 10:00:00 18.1 6 Este 16 Sur 0 893.6 0.8 79
2019-07-26 09:00:00 17 2 Sur 9 Este 0 892.8 -0.5 80
2019-07-26 08:00:00 16.7 5 Este 30 Este 0 892.7 -0.4 78
2019-07-26 07:00:00 16.7 15 Este 40 Este 0 892.8 -1.6 80
2019-07-26 06:00:00 16.7 12 Sudoeste 39 Sudoeste 0 893.3 -0.4 72
2019-07-26 05:00:00 17.2 11 Sudeste 31 Este 1 893.1 -0.8 74
2019-07-26 04:00:00 15.9 11 Sur 20 Sudeste 0 894.4 0.7 76
2019-07-26 03:00:00 15.7 3 Sur 6 Sur 0.2 893.7 -0.2 76
2019-07-26 02:00:00 16.3 6 Sur 12 Sur 0 893.9 0.1 61
2019-07-26 01:00:00 17.2 3 Sudeste 16 Sur 0 893.7 0.3 58
2019-07-26 00:00:00 17.7 2 Sudeste 8 Noroeste 0 893.9 0.6 57
2019-07-25 23:00:00 20.8 6 Sur 11 Sur 0 893.8 1.3 45
2019-07-25 22:00:00 23.1 0 Calma 10 Sudoeste 0 893.4 1.1 38
2019-07-25 21:00:00 27.4 6 Oeste 40 Noroeste 0 893.3 0.5 25
2019-07-25 20:00:00 30.3 15 Oeste 36 Oeste 0 892.5 -0.5 21
2019-07-25 19:00:00 31.7 9 Sudoeste 27 Sudoeste 0 892.3 -1.3 16
2019-07-25 18:00:00 30.9 13 Sudoeste 37 Oeste 0 892.8 -1.3 18
2019-07-25 17:00:00 32.9 10 Sudoeste 32 Sudoeste 0 893 -1.7 17
2019-07-25 16:00:00 32.2 12 Sudoeste 35 Sudoeste 0 893.6 -1.4 20
2019-07-25 15:00:00 32.1 10 Sur 31 Sur 0 894.1 -1.1 23
2019-07-25 14:00:00 30.8 13 Sur 30 Sudoeste 0 894.7 -0.6 24
2019-07-25 13:00:00 30.6 8 Sudoeste 19 Sudeste 0 895 -0.4 26
2019-07-25 12:00:00 29.3 6 Sur 23 Sudeste 0 895.2 -0.2 26
2019-07-25 11:00:00 27.3 7 Sudeste 18 Sudeste 0 895.3 -0.3 29
2019-07-25 10:00:00 23.6 7 Sur 12 Este 0 895.4 0.2 42
2019-07-25 09:00:00 18.5 6 Sudeste 14 Sur 0 895.4 0.5 56
2019-07-25 08:00:00 14.9 6 Sur 18 Sur 0 895.6 0.6 63
2019-07-25 07:00:00 14 6 Sur 17 Sur 0 895.2 0.1 66
2019-07-25 06:00:00 15.4 9 Sur 15 Sur 0 894.9 -0.4 60
2019-07-25 05:00:00 16.2 6 Sur 12 Sur 0 895 -0.6 59
2019-07-25 04:00:00 16.3 4 Sudeste 13 Sur 0 895.1 -0.3 59
2019-07-25 03:00:00 17.4 8 Sur 12 Sudeste 0 895.3 -0.2 55
2019-07-25 02:00:00 16.9 7 Sudeste 24 Sur 0 895.6 0.3 61
2019-07-25 01:00:00 18.1 10 Sur 17 Sur 0 895.4 0.5 58
2019-07-25 00:00:00 20 9 Sur 15 Sur 0 895.5 0.9 50
2019-07-24 23:00:00 22.1 5 Sur 11 Sur 0 895.3 0.8 45
2019-07-24 22:00:00 24.6 3 Este 7 Este 0 894.9 0.3 44
2019-07-24 21:00:00 28.8 4 Sudeste 11 Oeste 0 894.6 -0.6 32
2019-07-24 20:00:00 29.7 9 Oeste 17 Oeste 0 894.5 -0.6 24
2019-07-24 19:00:00 30 5 Sudoeste 19 Oeste 0 894.6 -1 26
2019-07-24 18:00:00 28.8 15 Oeste 31 Sudoeste 0 895.2 -1 25
2019-07-24 17:00:00 33.2 9 Sudoeste 23 Sudeste 0 895.1 -1.8 17
2019-07-24 16:00:00 31.8 8 Sudoeste 24 Sudeste 0 895.6 -1.8 21
2019-07-24 15:00:00 31.8 7 Sur 26 Sur 0 896.2 -1.4 21
2019-07-24 14:00:00 31.3 6 Sudeste 21 Sudeste 0 896.9 -0.9 23
2019-07-24 13:00:00 30 8 Sudeste 28 Este 0 897.4 -0.6 24
2019-07-24 12:00:00 28.4 12 Sudeste 28 Este 0 897.6 -0.3 29
2019-07-24 11:00:00 26.6 12 Este 19 Este 0 897.8 0.2 38
2019-07-24 10:00:00 22.6 8 Este 12 Este 0 898 0.5 50
2019-07-24 09:00:00 16.9 6 Sur 15 Sur 0 897.9 0.6 70
2019-07-24 08:00:00 13.4 12 Sur 18 Sur 0 897.6 0.1 84
2019-07-24 07:00:00 12.7 9 Sur 19 Sur 0 897.5 -0.5 89
2019-07-24 06:00:00 13.5 8 Sur 20 Sur 0 897.3 -0.9 88
2019-07-24 05:00:00 13.7 8 Sudeste 17 Sur 0 897.5 -2 88
2019-07-24 04:00:00 14.6 8 Sur 17 Sudeste 0 898 -1.6 85
2019-07-24 03:00:00 14.9 3 Este 13 Sur 0 898.2 -0.2 85
2019-07-24 02:00:00 15.5 8 Sur 17 Sur 0 899.5 0.3 84
2019-07-24 01:00:00 17.6 4 Este 20 Sur 0 899.6 3 75
2019-07-24 00:00:00 18.7 9 Sur 22 Este 0 898.4 1.8 67
2019-07-23 23:00:00 21.3 9 Sudoeste 37 Sudoeste 0 899.2 2.3 49
2019-07-23 22:00:00 20.1 25 Este 45 Este 2.8 896.6 0.5 59
2019-07-23 21:00:00 23.4 10 Sur 37 Oeste 0 896.6 -1.8 43
2019-07-23 20:00:00 24.5 11 Oeste 38 Oeste 0 896.9 0.3 34
2019-07-23 19:00:00 25.8 12 Este 60 Sur 0 896.1 -1.4 34
2019-07-23 18:00:00 24.8 18 Sudoeste 47 Oeste 0 898.4 0.2 33
2019-07-23 17:00:00 33.3 10 Sur 41 Sudeste 0 896.6 -2 14
2019-07-23 16:00:00 33.1 13 Sur 33 Sudeste 0 897.5 -0.9 17
2019-07-23 15:00:00 31.6 10 Sudeste 32 Sudeste 0 898.2 -0.7 19
2019-07-23 14:00:00 31 12 Sur 29 Sur 0 898.6 -0.8 23
2019-07-23 13:00:00 30 12 Este 24 Este 0 898.4 -1.5 27
2019-07-23 12:00:00 25.9 14 Este 24 Este 0 898.9 -2.1 38
2019-07-23 11:00:00 25.4 9 Nordeste 15 Nordeste 0 899.4 -0.3 38
2019-07-23 10:00:00 22.7 4 Nordeste 22 Oeste 0 899.9 0.7 43
2019-07-23 09:00:00 21.2 10 Oeste 30 Oeste 0 901 2 41
2019-07-23 08:00:00 16.5 10 Sur 20 Sur 0 899.7 0.3 60
2019-07-23 07:00:00 14.8 13 Sur 25 Sur 0 899.2 -0.5 66
2019-07-23 06:00:00 14.7 5 Sur 18 Sur 0 899 -0.9 69
2019-07-23 05:00:00 14.7 11 Sur 18 Sur 0 899.4 -1 69
2019-07-23 04:00:00 15.6 7 Sudeste 17 Sur 0 899.7 -0.8 68
2019-07-23 03:00:00 16.5 8 Sur 14 Sur 0 899.9 -0.4 63
2019-07-23 02:00:00 17.5 3 Sudeste 16 Sur 0 900.4 0.3 59
2019-07-23 01:00:00 18.2 7 Este 21 Sur 0 900.5 1.5 58
2019-07-23 00:00:00 21.6 4 Sudeste 11 Sudoeste 0 900.3 1.5 46
2019-07-22 23:00:00 24.9 7 Nordeste 25 Oeste 0 900.1 1.8 33
2019-07-22 22:00:00 25.2 2 Sur 17 Sudeste 0 899 0.5 34
2019-07-22 21:00:00 30.2 3 Sudeste 33 Este 0 898.8 -0.1 20
2019-07-22 20:00:00 32.7 13 Sudeste 31 Sudeste 0 898.3 -1.2 15
2019-07-22 19:00:00 33.6 10 Sudeste 33 Este 0 898.5 -1.6 14
2019-07-22 18:00:00 33.7 13 Sudeste 33 Sudeste 0 898.9 -1.5 14
2019-07-22 17:00:00 33.8 12 Sudeste 35 Este 0 899.5 -1.3 15
2019-07-22 16:00:00 33.1 12 Sudeste 39 Este 0 900.1 -1.1 18
2019-07-22 15:00:00 32.3 19 Este 39 Este 0 900.4 -1.1 23
2019-07-22 14:00:00 31.3 22 Este 35 Este 0 900.8 -0.9 25
2019-07-22 13:00:00 30 22 Este 34 Sudeste 0 901.2 -0.6 24
2019-07-22 12:00:00 28.7 19 Este 31 Este 0 901.5 -0.2 25
2019-07-22 11:00:00 27.1 18 Este 29 Este 0 901.7 0.2 28
2019-07-22 10:00:00 24.9 15 Este 23 Este 0 901.8 0.4 38
2019-07-22 09:00:00 21.5 15 Sudeste 23 Este 0 901.7 0.2 52
2019-07-22 08:00:00 19.2 3 Nordeste 20 Este 0 901.5 -0.2 61
2019-07-22 07:00:00 19.7 15 Este 29 Este 0 901.4 -0.3 58
2019-07-22 06:00:00 19.9 14 Sudeste 25 Sudeste 0 901.5 0.1 62
2019-07-22 05:00:00 20.7 13 Sudeste 20 Sudeste 0 901.7 0.1 60
2019-07-22 04:00:00 19.8 7 Sur 14 Sudeste 0 901.7 0.3 66
2019-07-22 03:00:00 20.4 6 Sudeste 19 Este 0 901.4 -0.3 65
2019-07-22 02:00:00 20.4 3 Sur 26 Este 0 901.6 0.8 68
2019-07-22 01:00:00 22.3 16 Este 41 Sudeste 0 901.4 1.1 58
2019-07-22 00:00:00 22.1 6 Sudeste 13 Este 0 901.7 1.6 58
2019-07-21 23:00:00 22.1 8 Sudeste 16 Sur 0 900.8 1.4 61
2019-07-21 22:00:00 21.1 0 Calma 15 Este 0 900.3 1.8 78
2019-07-21 21:00:00 21.5 4 Nordeste 32 Sudeste 0.6 900.1 1.7 77
2019-07-21 20:00:00 21 15 Sur 64 Este 7 899.4 0.5 73
2019-07-21 19:00:00 31.1 15 Este 31 Este 0 898.5 -0.8 27
2019-07-21 18:00:00 34 8 Oeste 31 Sudoeste 0 898.4 -1.2 21
2019-07-21 17:00:00 33 17 Oeste 31 Oeste 0 898.9 -0.9 20
2019-07-21 16:00:00 33.1 11 Sudoeste 26 Oeste 0 899.3 -0.8 19
2019-07-21 15:00:00 32.1 7 Sur 26 Este 0 899.6 -0.5 22
2019-07-21 14:00:00 30.8 12 Este 23 Este 0 899.8 -0.2 30
2019-07-21 13:00:00 29.3 13 Este 23 Este 0 900.1 0.2 34
2019-07-21 12:00:00 27.7 10 Este 26 Este 0 900.1 0.5 36
2019-07-21 11:00:00 25.7 12 Sudeste 29 Este 0 900 0.7 42
2019-07-21 10:00:00 24.1 17 Este 25 Este 0 899.9 0.9 48
2019-07-21 09:00:00 20.7 5 Este 10 Este 0 899.6 0.9 67
2019-07-21 08:00:00 18.4 7 Este 11 Este 0 899.3 0.6 74
2019-07-21 07:00:00 16.1 4 Este 10 Sudeste 0 899 0.3 81
2019-07-21 06:00:00 15.2 2 Sudeste 4 Este 0 898.7 0.1 87
2019-07-21 05:00:00 15 0 Calma 13 Este 0 898.7 0.4 85
2019-07-21 04:00:00 15.5 3 Noroeste 8 Sur 0 898.7 0.4 82
2019-07-21 03:00:00 16.9 0 Calma 8 Este 0 898.6 0.6 78
2019-07-21 02:00:00 18.6 3 Sur 14 Sur 0 898.3 0.8 68
2019-07-21 01:00:00 18.9 0 Calma 15 Sur 0 898.3 1.8 63
2019-07-21 00:00:00 20.3 3 Sudeste 11 Sur 0 898 2.1 61
2019-07-20 23:00:00 23.1 7 Sur 15 Sur 0 897.5 2 49
2019-07-20 22:00:00 24.7 2 Sur 14 Oeste 0 896.5 1 38
2019-07-20 21:00:00 28.8 6 Oeste 18 Noroeste 0 895.9 0.3 25
2019-07-20 20:00:00 30.7 9 Oeste 24 Noroeste 0 895.5 -0.3 24
2019-07-20 19:00:00 31.8 17 Oeste 36 Noroeste 0 895.5 -0.4 20
2019-07-20 18:00:00 32.3 13 Oeste 35 Noroeste 0 895.6 -0.4 19
2019-07-20 17:00:00 32.5 15 Oeste 39 Oeste 0 895.8 -0.2 17
2019-07-20 16:00:00 31.9 13 Oeste 31 Oeste 0 895.9 0.1 20
2019-07-20 15:00:00 31.9 6 Sudoeste 27 Sur 0 896 0.1 23
2019-07-20 14:00:00 31.1 10 Sudoeste 24 Sudoeste 0 896 0.2 24
2019-07-20 13:00:00 30.4 5 Sudeste 19 Sudeste 0 895.8 0 24
2019-07-20 12:00:00 28.4 7 Sudeste 17 Sur 0 895.9 0.3 29
2019-07-20 11:00:00 26.5 6 Sur 16 Sudeste 0 895.8 0.7 31
2019-07-20 10:00:00 23.1 6 Sudeste 11 Sur 0 895.8 1.2 44
2019-07-20 09:00:00 18.5 6 Sudeste 15 Sur 0 895.6 1.4 63
2019-07-20 08:00:00 15.4 7 Sur 15 Sur 0 895.1 0.8 72
2019-07-20 07:00:00 14.1 12 Sur 17 Sur 0 894.6 0.1 80
2019-07-20 06:00:00 16.1 8 Sur 17 Sur 0 894.2 -0.1 71
2019-07-20 05:00:00 15.6 3 Sudeste 13 Sur 0 894.3 0.1 73
2019-07-20 04:00:00 16.6 2 Sudeste 16 Sur 0 894.5 0.2 69
2019-07-20 03:00:00 16.9 10 Sur 15 Sur 0 894.3 0.1 69
2019-07-20 02:00:00 19.1 4 Sur 11 Sudeste 0 894.2 0 60
2019-07-20 01:00:00 20.8 5 Sur 11 Sur 0 894.3 0.7 54
2019-07-20 00:00:00 21.4 2 Sudeste 12 Sur 0 894.2 0.9 52
2019-07-19 23:00:00 23.7 5 Este 16 Sur 0 894.2 1 44
2019-07-19 22:00:00 23.8 4 Sur 13 Sur 0 893.6 0.4 45
2019-07-19 21:00:00 26.1 4 Oeste 12 Sur 0 893.3 -0.4 43
2019-07-19 20:00:00 29.7 4 Oeste 14 Noroeste 0 893.2 -0.8 28
2019-07-19 19:00:00 31 6 Oeste 16 Oeste 0 893.2 -1.4 23
2019-07-19 18:00:00 32.1 6 Oeste 30 Oeste 0 893.7 -1.4 21
2019-07-19 17:00:00 31.8 12 Noroeste 39 Noroeste 0 894 -1.4 21
2019-07-19 16:00:00 31.1 16 Oeste 37 Oeste 0 894.6 -1.2 22
2019-07-19 15:00:00 30.5 13 Oeste 42 Sudoeste 0 895.1 -1.1 23
2019-07-19 14:00:00 30.8 5 Sur 19 Sur 0 895.4 -1.1 22
2019-07-19 13:00:00 29.4 4 Nordeste 18 Sudeste 0 895.8 -1 24
2019-07-19 12:00:00 27 8 Este 24 Este 0 896.2 -0.6 33
2019-07-19 11:00:00 25.3 14 Sudeste 26 Este 0 896.5 -0.2 34
2019-07-19 10:00:00 22.2 7 Este 12 Este 0 896.8 0 47
2019-07-19 09:00:00 16.3 3 Este 13 Sur 0 896.8 -0.1 66
2019-07-19 08:00:00 11.2 8 Sur 18 Sur 0 896.7 -0.4 79
2019-07-19 07:00:00 10.2 4 Sudeste 17 Sur 0 896.8 -0.5 84
2019-07-19 06:00:00 10.5 5 Este 15 Sur 0 896.9 -0.6 83
2019-07-19 05:00:00 11.2 3 Sudeste 10 Sur 0 897.1 -0.4 81
2019-07-19 04:00:00 12 4 Sur 11 Sur 0 897.3 -0.2 78
2019-07-19 03:00:00 12.5 0 Calma 6 Sudeste 0 897.5 0.4 76
2019-07-19 02:00:00 13.2 0 Calma 15 Sudeste 0 897.5 0.7 74
2019-07-19 01:00:00 14.2 2 Nordeste 12 Sudeste 0 897.5 1.4 71
2019-07-19 00:00:00 18.5 8 Sur 15 Sur 0 897.1 1.3 54